Mohler, Oregon
Current Conditions -  °F | °C
As of 10:55 PM on Saturday 20 Dec 2014 (Local Time) from KTMK Reporting Station
Light Rain Light Rain  
Wind Chill: 57°   Ceiling: 700
Heat Index: 57°   Visibility: 4mi
Dew Point: 55°   Wind: 16mph
Humidity: 94%   Direction: 230°SW
Pressure: 29.77"   Gusts: 25mph
Location:  45.7222°N, 123.684°W
Report Text: KTMK 210655Z AUTO 23014G22KT 4SM -RA OVC007 14/13 A2977 RMK AO2 P0003
Loading
Personal Weather Stations






























Interactive Weather Map New forecast layout! Learn more

10-Day Weather Forecast

Advertisements
Track Severe Weather on mobile